首页
METAR-TAF:

METAR-TAF

机场 :

德布勒森, 匈牙利

纬度: 47-29N, 经度: 021-36E, 海拔: 108米

当前天气观测

该预报发布于26分钟前的23:45 UTC
风速10节,风向东北
温度 21°C
湿度 83%
气压 1021 hPa
能見度: 8000

METAR: LHDC 242345Z AUTO 04010KT 8000 NSC 21/18 Q1021 NOSIG

时间: 02:11 (00:11 UTC)

预报

该预报发布于3小时和56分钟前的20:15 UTC
预报有效从24日的 21点(UTC)到 25日的 06点(UTC)
风速10节,风向北转东北
能见度10公里或以上
1500米以下无云,无积雨云

TAF: LHDC 242015Z 2421/2506 03010KT CAVOK

超过4000个机场的气象观测和天气预报(METAR&TAF报告)。

可查询的气象台以黄色和红色小点在地图上表示。

将鼠标移到小点上方,可查看气象台名称。

然后点击查看天气观测和预报。

如需切换地图:点击带黑十字的绿色按钮放大地图;点击带横线的绿色按钮缩小地图;或者点击绿色箭头查看邻近地区的地图。


METAR-TAF: